Asiatic Glory — 9V3924 — position and weather

sailwx.info

Track history (hours):
 
Tides and Currents Weather Stations Pressure Air Temp Water Temp Dewpoint Dewpoint Depression Visibility Wind Speed Wind Dir Waves Ship Positions

Asiatic Glory

Last reported at 2018-Feb-21 11:30 UTC. Time now 2018-Feb-21 11:53 UTC.
Position N 46°27' E 030°51'.

Length 2 m; draft 6.5 m.

Type: Ship (hazmat cat D). MMSI: 565594000.

Date/timePositionNaut miles runAvg speedWind from/ knotsBaromVisibWave heightAir tempDewpointWater temp
2018-Feb-21 11:30N 46°27' E 030°51'813.7
2018-Feb-21 10:56N 46°19' E 030°54'29515.4
2018-Feb-20 15:48N 44°25' E 037°21'517.6
2018-Feb-20 15:30N 44°27' E 037°27'918.0
2018-Feb-20 15:01N 44°31' E 037°38'917.3
2018-Feb-20 14:30N 44°36' E 037°48'510.2
2018-Feb-20 14:00N 44°41' E 037°49'2 3.4
2018-Feb-20 13:28N 44°43' E 037°49'0 0.1
2018-Feb-20 12:59N 44°43' E 037°49'0 0.0
2018-Feb-20 12:29N 44°43' E 037°49'0 0.1
2018-Feb-20 11:58N 44°43' E 037°49'0 0.1
2018-Feb-20 11:28N 44°43' E 037°49'0 0.1
2018-Feb-20 10:58N 44°43' E 037°49'0 0.1
2018-Feb-20 10:28N 44°43' E 037°49'0 0.2
2018-Feb-20 10:00N 44°43' E 037°49'0 0.0
2018-Feb-20 09:30N 44°43' E 037°49'0 0.1
2018-Feb-20 09:00N 44°43' E 037°49'0 0.0
2018-Feb-20 08:30N 44°43' E 037°49'0 0.1
2018-Feb-20 07:59N 44°43' E 037°49'0 0.0
2018-Feb-20 07:29N 44°43' E 037°49'0 0.0
2018-Feb-20 06:59N 44°43' E 037°49'0 0.1
2018-Feb-20 06:29N 44°43' E 037°49'0 0.1
2018-Feb-20 05:59N 44°43' E 037°49'0 0.0
2018-Feb-20 05:28N 44°43' E 037°49'0 0.0
2018-Feb-20 04:58N 44°43' E 037°49'0 0.0
2018-Feb-20 04:28N 44°43' E 037°49'0 0.0
2018-Feb-20 03:58N 44°43' E 037°49'0 0.0
2018-Feb-20 03:28N 44°43' E 037°49'0 0.0
2018-Feb-20 03:00N 44°43' E 037°49'0 0.0
2018-Feb-20 02:30N 44°43' E 037°49'0 0.1
2018-Feb-20 02:00N 44°43' E 037°49'0 0.0
2018-Feb-20 01:30N 44°43' E 037°49'0 0.0
2018-Feb-20 00:59N 44°43' E 037°49'0 0.0
2018-Feb-20 00:26N 44°43' E 037°49'0 0.0
2018-Feb-19 23:56N 44°43' E 037°49'0 0.1
2018-Feb-19 23:29N 44°43' E 037°49'0 0.0
2018-Feb-19 22:59N 44°43' E 037°49'0 0.0
2018-Feb-19 22:25N 44°43' E 037°49'0 0.0
2018-Feb-19 21:55N 44°43' E 037°49'0 0.0
2018-Feb-19 21:25N 44°43' E 037°49'0 0.1
2018-Feb-19 20:58N 44°43' E 037°49'0 0.1
2018-Feb-19 20:28N 44°43' E 037°49'0 0.0
2018-Feb-19 20:00N 44°43' E 037°49'0 0.1
2018-Feb-19 19:30N 44°43' E 037°49'0 0.1
2018-Feb-19 19:00N 44°43' E 037°49'0 0.1
2018-Feb-19 18:30N 44°43' E 037°49'0 0.6
2018-Feb-19 18:00N 44°43' E 037°48'2 4.7
2018-Feb-19 17:30N 44°41' E 037°50'4 8.2
2018-Feb-19 17:00N 44°37' E 037°52'3 6.1
2018-Feb-19 16:30N 44°34' E 037°52'5 9.5
2018-Feb-19 16:00N 44°31' E 037°47'611.6
2018-Feb-19 15:30N 44°29' E 037°39'2 4.1
2018-Feb-19 15:00N 44°29' E 037°37'2 3.6
2018-Feb-19 14:30N 44°27' E 037°37'916.3
2018-Feb-19 13:56N 44°23' E 037°26'  
2018-Feb-15 19:21N 37°32' E 025°50'515.1
2018-Feb-15 19:01N 37°27' E 025°54'  
2018-Feb-13 00:46N 31°51' E 034°38'  
Track history (hours):
 
Tides and Currents Weather Stations Pressure Air Temp Water Temp Dewpoint Dewpoint Depression Visibility Wind Speed Wind Dir Waves Ship Positions

Asiatic Glory

Last reported at 2018-Feb-21 11:30 UTC. Time now 2018-Feb-21 11:53 UTC.
Position N 46°27' E 030°51'.

Length 2 m; draft 6.5 m.

Type: Ship (hazmat cat D). MMSI: 565594000.

Date/timePositionNaut miles runAvg speedWind from/ knotsBaromVisibWave heightAir tempDewpointWater temp
2018-Feb-21 11:30N 46°27' E 030°51'813.7
2018-Feb-21 10:56N 46°19' E 030°54'29515.4
2018-Feb-20 15:48N 44°25' E 037°21'517.6
2018-Feb-20 15:30N 44°27' E 037°27'918.0
2018-Feb-20 15:01N 44°31' E 037°38'917.3
2018-Feb-20 14:30N 44°36' E 037°48'510.2
2018-Feb-20 14:00N 44°41' E 037°49'2 3.4
2018-Feb-20 13:28N 44°43' E 037°49'0 0.1
2018-Feb-20 12:59N 44°43' E 037°49'0 0.0
2018-Feb-20 12:29N 44°43' E 037°49'0 0.1
2018-Feb-20 11:58N 44°43' E 037°49'0 0.1
2018-Feb-20 11:28N 44°43' E 037°49'0 0.1
2018-Feb-20 10:58N 44°43' E 037°49'0 0.1
2018-Feb-20 10:28N 44°43' E 037°49'0 0.2
2018-Feb-20 10:00N 44°43' E 037°49'0 0.0
2018-Feb-20 09:30N 44°43' E 037°49'0 0.1
2018-Feb-20 09:00N 44°43' E 037°49'0 0.0
2018-Feb-20 08:30N 44°43' E 037°49'0 0.1
2018-Feb-20 07:59N 44°43' E 037°49'0 0.0
2018-Feb-20 07:29N 44°43' E 037°49'0 0.0
2018-Feb-20 06:59N 44°43' E 037°49'0 0.1
2018-Feb-20 06:29N 44°43' E 037°49'0 0.1
2018-Feb-20 05:59N 44°43' E 037°49'0 0.0
2018-Feb-20 05:28N 44°43' E 037°49'0 0.0
2018-Feb-20 04:58N 44°43' E 037°49'0 0.0
2018-Feb-20 04:28N 44°43' E 037°49'0 0.0
2018-Feb-20 03:58N 44°43' E 037°49'0 0.0
2018-Feb-20 03:28N 44°43' E 037°49'0 0.0
2018-Feb-20 03:00N 44°43' E 037°49'0 0.0
2018-Feb-20 02:30N 44°43' E 037°49'0 0.1
2018-Feb-20 02:00N 44°43' E 037°49'0 0.0
2018-Feb-20 01:30N 44°43' E 037°49'0 0.0
2018-Feb-20 00:59N 44°43' E 037°49'0 0.0
2018-Feb-20 00:26N 44°43' E 037°49'0 0.0
2018-Feb-19 23:56N 44°43' E 037°49'0 0.1
2018-Feb-19 23:29N 44°43' E 037°49'0 0.0
2018-Feb-19 22:59N 44°43' E 037°49'0 0.0
2018-Feb-19 22:25N 44°43' E 037°49'0 0.0
2018-Feb-19 21:55N 44°43' E 037°49'0 0.0
2018-Feb-19 21:25N 44°43' E 037°49'0 0.1
2018-Feb-19 20:58N 44°43' E 037°49'0 0.1
2018-Feb-19 20:28N 44°43' E 037°49'0 0.0
2018-Feb-19 20:00N 44°43' E 037°49'0 0.1
2018-Feb-19 19:30N 44°43' E 037°49'0 0.1
2018-Feb-19 19:00N 44°43' E 037°49'0 0.1
2018-Feb-19 18:30N 44°43' E 037°49'0 0.6
2018-Feb-19 18:00N 44°43' E 037°48'2 4.7
2018-Feb-19 17:30N 44°41' E 037°50'4 8.2
2018-Feb-19 17:00N 44°37' E 037°52'3 6.1
2018-Feb-19 16:30N 44°34' E 037°52'5 9.5
2018-Feb-19 16:00N 44°31' E 037°47'611.6
2018-Feb-19 15:30N 44°29' E 037°39'2 4.1
2018-Feb-19 15:00N 44°29' E 037°37'2 3.6
2018-Feb-19 14:30N 44°27' E 037°37'916.3
2018-Feb-19 13:56N 44°23' E 037°26'  
2018-Feb-15 19:21N 37°32' E 025°50'515.1
2018-Feb-15 19:01N 37°27' E 025°54'  
2018-Feb-13 00:46N 31°51' E 034°38'  

Dump ship's entire track history